createdAt,value
2023-03-13T00:01:56.929Z,83.65
2023-03-13T00:04:23.751Z,83.11
2023-03-13T00:06:50.577Z,81.33
2023-03-13T00:09:17.078Z,82.04
2023-03-13T00:11:45.909Z,81.45
2023-03-13T00:14:12.448Z,79.84
2023-03-13T00:16:39.728Z,84.03
2023-03-13T00:19:07.506Z,81.68
2023-03-13T00:21:35.052Z,82.22
2023-03-13T00:24:02.169Z,86.17
2023-03-13T00:26:29.491Z,83.21
2023-03-13T00:28:56.093Z,78.49
2023-03-13T00:31:27.834Z,78.47
2023-03-13T00:33:55.923Z,80.05
2023-03-13T00:36:24.479Z,84.05
2023-03-13T00:38:51.911Z,82.13
2023-03-13T00:41:20.719Z,84.14
2023-03-13T00:43:48.291Z,82.71
2023-03-13T00:46:16.358Z,79.29
2023-03-13T00:48:43.654Z,80.85
2023-03-13T00:51:10.209Z,80.24
2023-03-13T00:53:37.086Z,80.33
2023-03-13T00:56:05.635Z,80.76
2023-03-13T00:58:34.469Z,81.08
2023-03-13T01:01:10.818Z,81.12
2023-03-13T01:03:38.045Z,81.99
2023-03-13T01:06:06.579Z,81.00
2023-03-13T01:08:35.045Z,81.05
2023-03-13T01:11:03.397Z,79.78
2023-03-13T01:13:31.281Z,80.86
2023-03-13T01:15:58.216Z,81.80
2023-03-13T01:18:25.724Z,81.30
2023-03-13T01:20:52.893Z,81.69
2023-03-13T01:23:19.922Z,81.14
2023-03-13T01:25:46.879Z,81.76
2023-03-13T01:28:13.634Z,82.13
2023-03-13T01:30:41.778Z,82.46
2023-03-13T01:33:08.726Z,83.85
2023-03-13T01:35:35.449Z,82.14
2023-03-13T01:38:02.169Z,81.34
2023-03-13T01:40:28.818Z,80.94
2023-03-13T01:42:57.130Z,82.94
2023-03-13T01:45:42.548Z,83.81
2023-03-13T01:48:08.854Z,84.01
2023-03-13T01:50:35.533Z,83.84
2023-03-13T01:53:02.109Z,81.15
2023-03-13T01:55:28.571Z,83.10
2023-03-13T01:57:55.145Z,81.35
2023-03-13T02:00:25.576Z,80.23
2023-03-13T02:02:54.593Z,78.89
2023-03-13T02:05:23.140Z,80.39
2023-03-13T02:07:55.507Z,77.89
2023-03-13T02:10:23.727Z,77.22
2023-03-13T02:12:51.393Z,81.28
2023-03-13T02:15:19.818Z,81.18
2023-03-13T02:17:48.410Z,83.49
2023-03-13T02:20:16.632Z,82.39
2023-03-13T02:22:55.543Z,82.58
2023-03-13T02:25:25.608Z,82.49
2023-03-13T02:27:55.781Z,83.46
2023-03-13T02:30:22.324Z,83.46
2023-03-13T02:32:49.186Z,83.03
2023-03-13T02:35:18.319Z,84.52
2023-03-13T02:37:47.025Z,85.87
2023-03-13T02:40:17.332Z,86.72
2023-03-13T02:42:46.120Z,85.76
2023-03-13T02:45:17.192Z,89.30
2023-03-13T02:47:44.108Z,89.36
2023-03-13T02:50:12.618Z,85.55
2023-03-13T02:52:43.471Z,87.59
2023-03-13T02:55:12.541Z,87.06
2023-03-13T02:57:39.427Z,86.18
2023-03-13T03:00:07.323Z,84.42
2023-03-13T03:02:35.001Z,83.08
2023-03-13T03:05:01.875Z,85.99
2023-03-13T03:07:29.979Z,86.05
2023-03-13T03:09:56.875Z,85.08
2023-03-13T03:12:23.688Z,84.73
2023-03-13T03:14:50.371Z,89.49
2023-03-13T03:17:19.165Z,90.40
2023-03-13T03:19:46.036Z,91.36
2023-03-13T03:22:14.467Z,89.37
2023-03-13T03:24:41.108Z,89.30
2023-03-13T03:27:07.703Z,93.00
2023-03-13T03:29:34.252Z,90.06
2023-03-13T03:32:01.474Z,88.96
2023-03-13T03:34:28.253Z,90.59
2023-03-13T03:36:54.761Z,90.99
2023-03-13T03:39:21.567Z,92.01
2023-03-13T03:41:48.552Z,92.14
2023-03-13T03:44:16.524Z,89.39
2023-03-13T03:46:43.393Z,89.14
2023-03-13T03:49:10.825Z,90.21
2023-03-13T03:51:37.717Z,89.71
2023-03-13T03:54:04.343Z,90.06
2023-03-13T03:56:31.706Z,87.60
2023-03-13T03:58:59.014Z,87.46
2023-03-13T04:01:25.723Z,89.55
2023-03-13T04:03:52.567Z,88.05
2023-03-13T04:06:19.773Z,90.64
2023-03-13T04:08:46.710Z,88.60
2023-03-13T04:11:13.574Z,92.90
2023-03-13T04:13:42.189Z,90.87
2023-03-13T04:16:09.666Z,89.09
2023-03-13T04:18:36.562Z,91.28
2023-03-13T04:21:04.213Z,93.70
2023-03-13T04:23:30.759Z,91.77
2023-03-13T04:25:57.306Z,90.04
2023-03-13T04:28:23.803Z,91.80
2023-03-13T04:30:50.593Z,93.76
2023-03-13T04:33:18.031Z,92.98
2023-03-13T04:35:45.784Z,94.78
2023-03-13T04:38:12.164Z,95.72
2023-03-13T04:40:40.024Z,95.47
2023-03-13T04:43:06.791Z,93.42
2023-03-13T04:45:33.572Z,94.22
2023-03-13T04:48:03.324Z,93.67
2023-03-13T04:50:30.183Z,97.01
2023-03-13T04:52:56.973Z,97.29
2023-03-13T04:55:23.849Z,96.12
2023-03-13T04:57:50.741Z,93.56
2023-03-13T05:00:17.644Z,94.61
2023-03-13T05:02:44.224Z,94.79
2023-03-13T05:05:10.659Z,93.80
2023-03-13T05:07:38.459Z,96.89
2023-03-13T05:10:05.164Z,93.06
2023-03-13T05:12:32.321Z,93.40
2023-03-13T05:14:58.762Z,96.20
2023-03-13T05:17:25.212Z,96.12
2023-03-13T05:19:52.408Z,96.49
2023-03-13T05:22:19.225Z,96.19
2023-03-13T05:24:45.921Z,98.62
2023-03-13T05:27:12.509Z,97.98
2023-03-13T05:29:39.791Z,98.68
2023-03-13T05:32:07.819Z,95.54
2023-03-13T05:34:34.431Z,97.65
2023-03-13T05:37:01.611Z,96.16
2023-03-13T05:39:29.290Z,95.49
2023-03-13T05:41:55.903Z,91.90
2023-03-13T05:44:22.857Z,96.10
2023-03-13T05:46:49.727Z,97.31
2023-03-13T05:49:16.379Z,94.92
2023-03-13T05:51:43.468Z,95.50
2023-03-13T05:54:10.434Z,97.86
2023-03-13T05:56:38.564Z,98.60
2023-03-13T05:59:05.202Z,100.00
2023-03-13T06:01:32.125Z,99.71
2023-03-13T06:03:58.881Z,100.00
2023-03-13T06:06:26.707Z,100.00
2023-03-13T06:08:53.606Z,100.00
2023-03-13T06:11:22.289Z,100.00
2023-03-13T06:13:48.723Z,100.00
2023-03-13T06:16:15.212Z,100.00
2023-03-13T06:18:43.217Z,100.00
2023-03-13T06:21:10.531Z,100.00
2023-03-13T06:23:37.255Z,100.00
2023-03-13T06:26:04.216Z,100.00
2023-03-13T06:28:31.072Z,100.00
2023-03-13T06:31:01.495Z,100.00
2023-03-13T06:33:28.283Z,100.00
2023-03-13T06:35:57.066Z,100.00
2023-03-13T06:38:27.154Z,100.00
2023-03-13T06:40:54.132Z,100.00
2023-03-13T06:43:21.908Z,100.00
2023-03-13T06:45:48.937Z,100.00
2023-03-13T06:48:15.644Z,100.00
2023-03-13T06:50:44.181Z,100.00
2023-03-13T06:53:16.752Z,100.00
2023-03-13T06:55:44.650Z,100.00
2023-03-13T06:58:21.781Z,100.00
2023-03-13T07:00:55.745Z,100.00
2023-03-13T07:03:22.469Z,100.00
2023-03-13T07:05:48.841Z,100.00
2023-03-13T07:08:15.479Z,96.80
2023-03-13T07:10:43.092Z,95.56
2023-03-13T07:13:09.914Z,98.80
2023-03-13T07:15:36.387Z,96.62
2023-03-13T07:18:03.111Z,98.14
2023-03-13T07:20:30.356Z,100.00
2023-03-13T07:22:56.827Z,100.00
2023-03-13T07:25:23.504Z,100.00
2023-03-13T07:27:53.797Z,100.00
2023-03-13T07:30:20.593Z,100.00
2023-03-13T07:32:47.240Z,100.00
2023-03-13T07:35:14.402Z,100.00
2023-03-13T07:37:41.156Z,100.00
2023-03-13T07:40:09.266Z,100.00
2023-03-13T07:42:35.951Z,95.21
2023-03-13T07:45:02.823Z,96.82
2023-03-13T07:47:29.500Z,97.12
2023-03-13T07:49:56.514Z,94.09
2023-03-13T07:52:23.413Z,96.00
2023-03-13T07:54:49.866Z,100.00
2023-03-13T07:57:16.871Z,97.73
2023-03-13T07:59:43.651Z,96.13
2023-03-13T08:02:12.424Z,97.05
2023-03-13T08:04:38.974Z,98.36
2023-03-13T08:07:08.432Z,100.00
2023-03-13T08:09:35.302Z,98.66
2023-03-13T08:12:02.197Z,100.00
2023-03-13T08:14:29.615Z,100.00
2023-03-13T08:16:56.409Z,100.00
2023-03-13T08:19:23.317Z,98.96
2023-03-13T08:21:49.903Z,92.66
2023-03-13T08:24:16.385Z,93.56
2023-03-13T08:26:43.108Z,93.74
2023-03-13T08:29:10.897Z,97.88
2023-03-13T08:31:43.463Z,96.07
2023-03-13T08:34:11.760Z,97.73
2023-03-13T08:36:39.140Z,99.35
2023-03-13T08:39:13.460Z,99.81
2023-03-13T08:41:41.262Z,98.99
2023-03-13T08:44:08.358Z,100.00
2023-03-13T08:46:36.116Z,100.00
2023-03-13T08:49:03.967Z,100.00
2023-03-13T08:51:30.545Z,100.00
2023-03-13T08:53:57.083Z,100.00
2023-03-13T08:56:25.119Z,100.00
2023-03-13T08:58:52.392Z,100.00
2023-03-13T09:01:19.880Z,100.00
2023-03-13T09:03:46.465Z,100.00
2023-03-13T09:06:13.079Z,100.00
2023-03-13T09:08:39.983Z,100.00
2023-03-13T09:11:08.571Z,100.00
2023-03-13T09:13:37.201Z,100.00
2023-03-13T09:16:05.467Z,100.00
2023-03-13T09:18:32.508Z,100.00
2023-03-13T09:20:59.938Z,100.00
2023-03-13T09:23:26.972Z,100.00
2023-03-13T09:25:54.792Z,100.00
2023-03-13T09:28:21.431Z,100.00
2023-03-13T09:30:50.284Z,99.04
2023-03-13T09:33:17.488Z,100.00
2023-03-13T09:35:47.069Z,100.00
2023-03-13T09:38:13.967Z,99.49
2023-03-13T09:41:05.148Z,100.00
2023-03-13T09:43:38.428Z,100.00
2023-03-13T09:46:06.818Z,100.00
2023-03-13T09:48:37.843Z,100.00
2023-03-13T09:51:04.441Z,100.00
2023-03-13T09:53:46.867Z,100.00
2023-03-13T09:56:18.234Z,100.00
2023-03-13T09:59:11.668Z,100.00
2023-03-13T10:01:41.037Z,100.00
2023-03-13T10:04:19.954Z,100.00
2023-03-13T10:06:49.190Z,100.00
2023-03-13T10:09:17.775Z,100.00
2023-03-13T10:11:59.775Z,100.00
2023-03-13T10:14:29.786Z,100.00
2023-03-13T10:17:05.563Z,100.00
2023-03-13T10:19:34.618Z,100.00
2023-03-13T10:22:03.640Z,100.00
2023-03-13T10:24:43.033Z,100.00
2023-03-13T10:27:10.924Z,99.55
2023-03-13T10:29:38.693Z,100.00
2023-03-13T10:32:06.500Z,98.48
2023-03-13T10:34:51.954Z,100.00
2023-03-13T10:37:42.250Z,100.00
2023-03-13T10:40:23.276Z,100.00
2023-03-13T10:42:50.976Z,100.00
2023-03-13T10:45:19.069Z,100.00
2023-03-13T10:47:45.933Z,100.00
2023-03-13T10:50:21.177Z,100.00
2023-03-13T10:52:49.891Z,97.22
2023-03-13T10:55:19.558Z,99.80
2023-03-13T10:57:55.535Z,99.14
2023-03-13T11:00:44.026Z,98.00
2023-03-13T11:03:18.623Z,94.21
2023-03-13T11:05:54.011Z,93.46
2023-03-13T11:08:24.172Z,93.26
2023-03-13T11:10:53.829Z,90.56
2023-03-13T11:13:47.366Z,89.67
2023-03-13T11:16:29.570Z,88.65
2023-03-13T11:18:56.278Z,88.96
2023-03-13T11:21:37.120Z,89.46
2023-03-13T11:24:08.124Z,92.98
2023-03-13T11:27:04.218Z,90.54
2023-03-13T11:29:42.703Z,88.77
2023-03-13T11:32:17.653Z,88.06
2023-03-13T11:34:48.057Z,85.82
2023-03-13T11:37:16.098Z,83.43
2023-03-13T11:39:55.861Z,80.50
2023-03-13T11:42:42.061Z,78.35
2023-03-13T11:45:16.742Z,77.77
2023-03-13T11:47:43.523Z,71.72
2023-03-13T11:50:12.986Z,67.97
2023-03-13T11:52:39.660Z,73.19
2023-03-13T11:55:17.965Z,71.13
2023-03-13T11:58:03.784Z,66.87
2023-03-13T12:00:47.741Z,69.10
2023-03-13T12:03:17.483Z,69.64
2023-03-13T12:05:53.337Z,67.71
2023-03-13T12:08:28.092Z,66.91
2023-03-13T12:11:13.363Z,67.17
2023-03-13T12:13:42.606Z,61.09
2023-03-13T12:16:19.706Z,65.52
2023-03-13T12:18:46.670Z,65.98
2023-03-13T12:21:19.374Z,65.28
2023-03-13T12:24:09.720Z,63.22
2023-03-13T12:26:43.444Z,63.03
2023-03-13T12:29:22.916Z,65.99
2023-03-13T12:32:06.074Z,65.05
2023-03-13T12:34:52.464Z,64.18
2023-03-13T12:37:22.847Z,65.31
2023-03-13T12:39:58.163Z,63.14
2023-03-13T12:42:51.852Z,60.97
2023-03-13T12:45:19.622Z,58.73
2023-03-13T12:48:05.376Z,60.65
2023-03-13T12:50:43.336Z,60.72
2023-03-13T12:53:28.197Z,60.11
2023-03-13T12:56:03.984Z,61.07
2023-03-13T12:58:30.853Z,59.97
2023-03-13T13:01:02.019Z,58.42
2023-03-13T13:03:37.724Z,56.11
2023-03-13T13:06:06.626Z,56.05
2023-03-13T13:08:38.432Z,62.84
2023-03-13T13:11:24.421Z,62.84
2023-03-13T13:13:51.310Z,63.27
2023-03-13T13:16:20.660Z,64.96
2023-03-13T13:18:47.173Z,64.27
2023-03-13T13:21:17.014Z,63.13
2023-03-13T13:23:48.105Z,58.83
2023-03-13T13:26:27.057Z,61.42
2023-03-13T13:28:55.712Z,62.47
2023-03-13T13:31:40.940Z,60.92
2023-03-13T13:34:07.393Z,61.18
2023-03-13T13:36:41.012Z,61.45
2023-03-13T13:39:23.132Z,61.26
2023-03-13T13:41:50.860Z,61.52
2023-03-13T13:44:25.591Z,58.69
2023-03-13T13:46:53.871Z,57.94
2023-03-13T13:49:21.721Z,58.93
2023-03-13T13:52:04.354Z,56.87
2023-03-13T13:54:54.967Z,53.93
2023-03-13T13:57:26.961Z,55.40
2023-03-13T14:00:06.522Z,56.10
2023-03-13T14:02:37.261Z,55.70
2023-03-13T14:05:21.777Z,53.93
2023-03-13T14:07:53.071Z,56.06
2023-03-13T14:10:29.648Z,56.00
2023-03-13T14:12:58.785Z,56.54
2023-03-13T14:15:29.439Z,55.93
2023-03-13T14:18:00.561Z,57.54
2023-03-13T14:20:37.010Z,55.23
2023-03-13T14:23:06.203Z,55.90
2023-03-13T14:25:50.691Z,57.19
2023-03-13T14:28:17.177Z,55.59
2023-03-13T14:30:44.609Z,53.88
2023-03-13T14:33:12.056Z,54.94
2023-03-13T14:35:39.982Z,54.69
2023-03-13T14:38:25.954Z,54.68
2023-03-13T14:40:53.761Z,54.05
2023-03-13T14:43:35.190Z,54.14
2023-03-13T14:46:14.358Z,53.86
2023-03-13T14:48:41.913Z,54.61
2023-03-13T14:51:19.947Z,54.01
2023-03-13T14:54:13.183Z,52.70
2023-03-13T14:56:45.318Z,53.57
2023-03-13T14:59:20.165Z,54.02
2023-03-13T15:01:46.839Z,54.28
2023-03-13T15:04:13.942Z,54.16
2023-03-13T15:06:40.842Z,53.65
2023-03-13T15:09:15.949Z,52.97
2023-03-13T15:11:44.073Z,53.53
2023-03-13T15:14:30.004Z,53.08
2023-03-13T15:16:56.689Z,52.94
2023-03-13T15:19:23.257Z,51.30
2023-03-13T15:21:54.718Z,50.57
2023-03-13T15:24:21.184Z,51.83
2023-03-13T15:26:49.331Z,50.21
2023-03-13T15:29:18.234Z,51.34
2023-03-13T15:31:46.014Z,51.83
2023-03-13T15:34:14.335Z,51.54
2023-03-13T15:36:43.679Z,52.18
2023-03-13T15:39:23.293Z,51.87
2023-03-13T15:41:51.162Z,50.67
2023-03-13T15:44:18.617Z,49.84
2023-03-13T15:46:46.221Z,51.36
2023-03-13T15:49:16.412Z,51.67
2023-03-13T15:51:45.909Z,52.33
2023-03-13T15:54:12.939Z,52.04
2023-03-13T15:56:39.569Z,52.05
2023-03-13T15:59:11.960Z,53.68
2023-03-13T16:01:40.128Z,52.52
2023-03-13T16:04:07.364Z,51.84
2023-03-13T16:06:33.930Z,52.22
2023-03-13T16:09:01.290Z,54.50
2023-03-13T16:11:29.585Z,53.81
2023-03-13T16:13:57.798Z,53.34
2023-03-13T16:16:26.326Z,52.01
2023-03-13T16:18:53.794Z,53.48
2023-03-13T16:21:22.515Z,53.90
2023-03-13T16:23:49.923Z,53.60
2023-03-13T16:26:18.567Z,53.28
2023-03-13T16:28:46.656Z,54.06
2023-03-13T16:31:22.480Z,52.31
2023-03-13T16:33:53.639Z,52.08
2023-03-13T16:36:21.976Z,51.82
2023-03-13T16:38:49.619Z,52.47
2023-03-13T16:41:18.715Z,53.78
2023-03-13T16:43:45.822Z,53.19
2023-03-13T16:46:19.540Z,52.09
2023-03-13T16:48:47.060Z,51.83
2023-03-13T16:51:21.859Z,52.07
2023-03-13T16:53:49.389Z,51.54
2023-03-13T16:56:27.326Z,51.25
2023-03-13T16:58:55.757Z,51.76
2023-03-13T17:01:27.188Z,51.63
2023-03-13T17:03:56.620Z,51.33
2023-03-13T17:06:29.266Z,51.51
2023-03-13T17:08:56.630Z,50.51
2023-03-13T17:11:31.528Z,50.63
2023-03-13T17:13:59.773Z,50.64
2023-03-13T17:16:33.464Z,49.89
2023-03-13T17:19:02.021Z,50.82
2023-03-13T17:21:31.355Z,51.29
2023-03-13T17:23:59.681Z,51.00
2023-03-13T17:26:29.411Z,51.61
2023-03-13T17:28:57.249Z,51.23
2023-03-13T17:31:25.424Z,52.40
2023-03-13T17:33:52.250Z,52.87
2023-03-13T17:36:23.971Z,53.82
2023-03-13T17:38:52.674Z,52.65
2023-03-13T17:41:21.057Z,52.91
2023-03-13T17:43:48.707Z,53.10
2023-03-13T17:46:39.234Z,52.01
2023-03-13T17:49:07.813Z,51.36
2023-03-13T17:51:35.919Z,51.14
2023-03-13T17:54:03.751Z,50.96
2023-03-13T17:56:37.454Z,51.18
2023-03-13T17:59:06.989Z,51.60
2023-03-13T18:01:34.912Z,52.94
2023-03-13T18:04:02.463Z,51.27
2023-03-13T18:06:37.448Z,51.68
2023-03-13T18:09:08.806Z,51.38
2023-03-13T18:11:38.552Z,52.09
2023-03-13T18:14:06.159Z,51.59
2023-03-13T18:16:47.911Z,52.39
2023-03-13T18:19:16.876Z,51.85
2023-03-13T18:21:58.181Z,51.27
2023-03-13T18:24:24.976Z,51.24
2023-03-13T18:26:53.563Z,50.48
2023-03-13T18:29:26.881Z,51.47
2023-03-13T18:31:55.535Z,52.51
2023-03-13T18:34:28.976Z,51.13
2023-03-13T18:36:56.637Z,51.35
2023-03-13T18:39:23.965Z,50.93
2023-03-13T18:41:53.539Z,50.96
2023-03-13T18:44:21.361Z,50.10
2023-03-13T18:46:47.979Z,52.95
2023-03-13T18:49:21.437Z,53.17
2023-03-13T18:51:49.708Z,52.62
2023-03-13T18:54:18.464Z,51.73
2023-03-13T18:56:46.659Z,52.46
2023-03-13T18:59:19.591Z,53.28
2023-03-13T19:01:48.771Z,52.16
2023-03-13T19:04:15.865Z,52.50
2023-03-13T19:06:42.586Z,53.68
2023-03-13T19:09:41.558Z,54.81
2023-03-13T19:12:06.868Z,53.93
2023-03-13T19:14:34.580Z,53.58
2023-03-13T19:17:04.757Z,52.87
2023-03-13T19:19:32.477Z,53.75
2023-03-13T19:21:59.820Z,52.61
2023-03-13T19:24:27.741Z,53.24
2023-03-13T19:26:59.077Z,52.78
2023-03-13T19:29:28.244Z,52.40
2023-03-13T19:31:55.673Z,51.18
2023-03-13T19:34:23.976Z,49.73
2023-03-13T19:36:56.214Z,49.65
2023-03-13T19:39:25.654Z,50.16
2023-03-13T19:41:54.661Z,51.06
2023-03-13T19:44:22.001Z,52.28
2023-03-13T19:46:50.719Z,53.40
2023-03-13T19:49:19.476Z,54.35
2023-03-13T19:51:47.452Z,54.65
2023-03-13T19:54:18.314Z,53.94
2023-03-13T19:56:47.383Z,52.52
2023-03-13T19:59:18.514Z,54.24
2023-03-13T20:01:46.097Z,54.73
2023-03-13T20:04:13.018Z,54.89
2023-03-13T20:06:42.451Z,55.04
2023-03-13T20:09:14.921Z,52.30
2023-03-13T20:11:45.444Z,52.85
2023-03-13T20:14:12.523Z,54.12
2023-03-13T20:16:39.889Z,54.36
2023-03-13T20:19:06.875Z,53.82
2023-03-13T20:21:35.676Z,52.57
2023-03-13T20:24:03.667Z,53.30
2023-03-13T20:26:32.481Z,51.99
2023-03-13T20:29:00.573Z,50.71
2023-03-13T20:31:30.991Z,51.68
2023-03-13T20:33:59.098Z,51.43
2023-03-13T20:36:26.612Z,51.69
2023-03-13T20:38:53.629Z,52.75
2023-03-13T20:41:25.480Z,51.23
2023-03-13T20:43:53.074Z,51.73
2023-03-13T20:46:27.719Z,51.57
2023-03-13T20:48:55.186Z,52.67
2023-03-13T20:51:22.548Z,52.42
2023-03-13T20:53:49.753Z,52.48
2023-03-13T20:56:16.660Z,51.96
2023-03-13T20:58:44.143Z,52.05
2023-03-13T21:01:11.758Z,52.53
2023-03-13T21:03:39.683Z,52.64
2023-03-13T21:06:11.292Z,53.22
2023-03-13T21:08:44.975Z,52.01
2023-03-13T21:11:22.826Z,51.23
2023-03-13T21:13:50.220Z,51.50
2023-03-13T21:16:20.145Z,51.95
2023-03-13T21:18:47.207Z,51.93
2023-03-13T21:21:17.715Z,51.69
2023-03-13T21:23:47.564Z,52.28
2023-03-13T21:26:16.554Z,51.07
2023-03-13T21:28:44.168Z,51.41
2023-03-13T21:31:14.066Z,51.95
2023-03-13T21:33:42.020Z,53.00
2023-03-13T21:36:10.911Z,54.13
2023-03-13T21:38:39.615Z,53.29
2023-03-13T21:41:11.606Z,52.94
2023-03-13T21:43:40.416Z,51.94
2023-03-13T21:46:07.764Z,52.53
2023-03-13T21:48:35.058Z,53.60
2023-03-13T21:51:01.821Z,53.00
2023-03-13T21:53:31.105Z,53.20
2023-03-13T21:55:59.722Z,52.93
2023-03-13T21:58:45.589Z,53.64
2023-03-13T22:01:12.983Z,53.65
2023-03-13T22:03:39.970Z,54.68
2023-03-13T22:06:14.587Z,53.37
2023-03-13T22:08:43.519Z,52.66
2023-03-13T22:11:10.678Z,53.25
2023-03-13T22:13:44.203Z,53.31
2023-03-13T22:16:12.238Z,53.62
2023-03-13T22:18:40.600Z,52.73
2023-03-13T22:21:08.572Z,51.67
2023-03-13T22:23:36.669Z,50.96
2023-03-13T22:26:04.434Z,51.35
2023-03-13T22:28:32.260Z,51.54
2023-03-13T22:31:04.320Z,53.45
2023-03-13T22:33:34.664Z,54.39
2023-03-13T22:36:02.355Z,54.02
2023-03-13T22:38:30.418Z,54.05
2023-03-13T22:40:59.358Z,54.51
2023-03-13T22:43:27.685Z,55.25
2023-03-13T22:45:55.498Z,55.65
2023-03-13T22:48:23.563Z,54.94
2023-03-13T22:51:00.413Z,55.95
2023-03-13T22:53:27.760Z,56.74
2023-03-13T22:55:56.092Z,58.45
2023-03-13T22:58:23.276Z,58.29
2023-03-13T23:00:58.727Z,57.41
2023-03-13T23:03:26.301Z,59.35
2023-03-13T23:05:54.386Z,60.21
2023-03-13T23:08:22.129Z,58.68
2023-03-13T23:10:48.997Z,59.17
2023-03-13T23:13:20.347Z,59.71
2023-03-13T23:15:55.977Z,59.77
2023-03-13T23:18:24.577Z,60.19
2023-03-13T23:20:52.562Z,60.85
2023-03-13T23:23:20.176Z,62.06
2023-03-13T23:25:49.088Z,61.12
2023-03-13T23:28:16.803Z,62.30
2023-03-13T23:30:44.217Z,64.61
2023-03-13T23:33:14.516Z,62.65
2023-03-13T23:35:41.918Z,63.38
2023-03-13T23:38:28.633Z,62.08
2023-03-13T23:40:58.406Z,63.25
2023-03-13T23:43:31.928Z,63.33
2023-03-13T23:45:58.889Z,61.29
2023-03-13T23:48:27.137Z,62.11
2023-03-13T23:51:14.962Z,61.75
2023-03-13T23:53:42.832Z,59.97
2023-03-13T23:56:13.369Z,64.95
2023-03-13T23:58:41.126Z,65.53
